Terminal Aerodrome Forecast
Issued by NWS Pocatello, ID

Home | Current Version | Previous Version | Text Only | Print | Product List | Glossary On
Versions: 1 2 3 4 5 6 7 8 9 10 11 12 13 14 15 16 17 18 19 20 21 22 23 24
899
FTUS45 KPIH 080016 AAA
TAFIDA
TAF AMD
KIDA 080016Z 0800/0824 36006KT P6SM SCT025 SCT060
     FM080700 36006KT P6SM BKN025 BKN200
     FM081500 02006KT P6SM SCT025 SCT140
     FM082200 VRB05KT P6SM VCSH SCT008 BKN040 OVC060=

USA.gov is the U.S. government's official web portal to all federal, state and local government web resources and services.